Time;durP1;ratioP1;P1;durP2;ratioP2;P2;SDS_P1;SDS_P2;PMS_P1;PMS_P2;Temp;Humidity;BMP_temperature;BMP_pressure;BME280_temperature;BME280_humidity;BME280_pressure;Samples;Min_cycle;Max_cycle;Signal;HPM_P1;HPM_P2
2022/03/18 03:32:44;;;;;;;11.18;2.05;;;25.10;76.30;;;;;;5027657;28;20056;-71
2022/03/18 03:35:12;;;;;;;19.73;5.72;;;25.10;76.00;;;;;;5009921;28;20670;-69
2022/03/18 03:37:39;;;;;;;23.08;8.43;;;25.00;76.10;;;;;;5016878;28;20045;-72
2022/03/18 03:40:07;;;;;;;15.63;4.63;;;25.10;76.30;;;;;;4964167;28;20112;-73
2022/03/18 03:42:34;;;;;;;11.85;3.28;;;25.10;77.10;;;;;;4996941;28;20618;-72
2022/03/18 03:45:02;;;;;;;15.73;3.33;;;25.00;77.10;;;;;;4991183;28;20045;-71
2022/03/18 03:47:29;;;;;;;11.25;2.50;;;25.00;77.20;;;;;;4980082;28;20034;-73
2022/03/18 03:49:56;;;;;;;9.10;2.35;;;25.00;77.10;;;;;;5015357;28;20026;-71
2022/03/18 03:52:23;;;;;;;8.95;2.47;;;25.00;76.50;;;;;;4995557;28;20496;-71
2022/03/18 03:54:50;;;;;;;7.55;2.47;;;25.00;76.40;;;;;;5011480;28;20046;-71
2022/03/18 03:57:17;;;;;;;9.52;2.30;;;25.00;76.60;;;;;;5000040;28;20029;-71
2022/03/18 03:59:45;;;;;;;10.95;2.40;;;25.00;75.80;;;;;;5011972;28;20105;-71
2022/03/18 04:02:12;;;;;;;10.73;3.08;;;25.00;75.80;;;;;;5012225;28;20041;-74
2022/03/18 04:04:39;;;;;;;12.15;2.80;;;25.00;75.90;;;;;;4987476;28;20072;-71
2022/03/18 04:07:08;;;;;;;10.88;2.53;;;25.00;75.60;;;;;;5011869;28;20113;-71
2022/03/18 04:09:35;;;;;;;11.00;2.05;;;25.00;75.60;;;;;;4980355;28;20153;-73
2022/03/18 04:12:02;;;;;;;9.32;2.65;;;24.90;75.70;;;;;;4996957;28;20109;-70
2022/03/18 04:14:29;;;;;;;14.48;3.30;;;25.00;76.00;;;;;;4994685;28;20342;-70
2022/03/18 04:16:57;;;;;;;13.43;2.88;;;25.00;76.60;;;;;;5011658;28;20521;-70
2022/03/18 04:19:24;;;;;;;7.85;2.22;;;25.00;77.00;;;;;;5010022;28;20113;-70
2022/03/18 04:21:51;;;;;;;11.70;2.60;;;25.00;76.70;;;;;;4995229;28;20026;-70
2022/03/18 04:24:18;;;;;;;14.82;3.03;;;25.00;76.20;;;;;;5011619;28;20113;-70
2022/03/18 04:26:46;;;;;;;9.98;2.13;;;25.00;76.40;;;;;;5010722;28;20030;-72
2022/03/18 04:29:13;;;;;;;6.80;1.98;;;25.00;75.80;;;;;;5012182;28;20563;-70
2022/03/18 04:31:40;;;;;;;15.25;2.67;;;25.00;75.20;;;;;;4988282;28;20416;-66
2022/03/18 04:34:08;;;;;;;13.55;2.67;;;25.00;75.10;;;;;;5005706;28;20603;-64
2022/03/18 04:36:35;;;;;;;12.75;2.75;;;25.00;74.60;;;;;;5013646;28;20021;-64
2022/03/18 04:39:02;;;;;;;10.88;2.55;;;25.00;75.90;;;;;;5031508;28;20076;-65
2022/03/18 04:41:29;;;;;;;9.77;2.22;;;24.90;76.20;;;;;;5030611;28;20034;-65
2022/03/18 04:43:56;;;;;;;13.00;2.70;;;24.90;76.20;;;;;;5031795;28;20504;-65
2022/03/18 04:46:24;;;;;;;7.72;2.20;;;24.90;76.30;;;;;;5028868;28;20229;-66
2022/03/18 04:48:51;;;;;;;9.82;2.05;;;24.90;76.00;;;;;;5012240;28;20136;-66
2022/03/18 04:51:18;;;;;;;9.43;2.45;;;24.80;76.00;;;;;;5012646;28;20128;-67
2022/03/18 04:53:45;;;;;;;12.77;2.50;;;24.80;75.50;;;;;;5026836;28;20398;-65
2022/03/18 04:58:58;;;;;;;14.35;2.72;;;24.80;75.30;;;;;;5030396;28;20104;-68
2022/03/18 05:01:26;;;;;;;9.88;3.15;;;24.80;75.60;;;;;;5006096;28;20099;-68
2022/03/18 05:03:55;;;;;;;9.38;2.47;;;24.80;75.20;;;;;;5030340;28;20045;-69
2022/03/18 05:06:22;;;;;;;9.73;2.50;;;24.80;74.40;;;;;;5029881;28;20022;-69
2022/03/18 05:08:49;;;;;;;10.50;2.28;;;24.80;74.80;;;;;;5011868;28;20413;-68
2022/03/18 05:11:16;;;;;;;7.03;2.20;;;24.80;74.00;;;;;;5013247;28;20033;-67
2022/03/18 05:13:44;;;;;;;15.05;2.88;;;24.80;73.90;;;;;;5030225;28;20423;-68
2022/03/18 05:16:11;;;;;;;9.00;2.10;;;24.80;73.50;;;;;;5028671;28;20033;-69
2022/03/18 05:18:39;;;;;;;9.38;2.25;;;24.80;73.80;;;;;;5010773;28;20042;-66
2022/03/18 05:21:06;;;;;;;8.20;2.05;;;24.80;73.90;;;;;;5012189;28;20502;-68
2022/03/18 05:23:33;;;;;;;11.23;2.88;;;24.80;73.50;;;;;;5006986;28;20045;-70
2022/03/18 05:26:00;;;;;;;14.63;3.40;;;24.80;73.50;;;;;;5032031;28;20511;-67
2022/03/18 05:28:27;;;;;;;19.40;3.85;;;24.80;73.30;;;;;;5030577;28;20053;-67
2022/03/18 05:30:55;;;;;;;11.13;2.20;;;24.80;74.30;;;;;;5031067;28;20037;-68
2022/03/18 05:33:22;;;;;;;10.07;2.50;;;24.80;73.80;;;;;;5030321;28;20041;-69
2022/03/18 05:35:49;;;;;;;28.00;3.38;;;24.80;73.40;;;;;;5012746;28;20073;-69
2022/03/18 05:38:16;;;;;;;44.40;8.65;;;24.80;74.30;;;;;;5000580;28;20037;-68
2022/03/18 05:40:44;;;;;;;15.52;2.75;;;24.80;75.00;;;;;;5003367;28;20073;-76
2022/03/18 05:43:11;;;;;;;9.90;3.25;;;24.80;74.00;;;;;;5011051;28;20107;-67
2022/03/18 05:45:38;;;;;;;14.80;3.00;;;24.80;74.40;;;;;;5028536;28;20048;-67
2022/03/18 05:48:09;;;;;;;6.22;2.10;;;24.70;74.40;;;;;;5028605;28;20041;-67
2022/03/18 05:50:36;;;;;;;14.05;2.58;;;24.70;73.90;;;;;;5022998;28;20026;-67
2022/03/18 05:53:04;;;;;;;11.60;3.47;;;24.70;75.20;;;;;;5007581;28;20152;-67
2022/03/18 05:56:52;;;;;;;19.80;3.25;;;24.60;75.40;;;;;;5021793;28;20955;-67
2022/03/18 05:58:20;;;;;;;13.52;3.08;;;24.70;75.30;;;;;;5014631;28;20056;-67
2022/03/18 06:00:48;;;;;;;12.63;2.47;;;24.70;75.30;;;;;;5028579;28;20368;-67
2022/03/18 06:03:15;;;;;;;9.55;2.20;;;24.70;75.00;;;;;;5029235;28;20045;-67
2022/03/18 06:05:42;;;;;;;10.23;2.33;;;24.70;74.80;;;;;;5030230;28;20034;-67
2022/03/18 06:13:41;;;;;;;9.52;2.03;;;24.60;75.30;;;;;;5027688;28;20053;-67
2022/03/18 06:16:08;;;;;;;10.43;2.20;;;24.60;75.30;;;;;;5029106;28;20539;-67
2022/03/18 06:18:35;;;;;;;10.27;2.40;;;24.70;75.90;;;;;;5024326;28;20033;-66
2022/03/18 06:21:06;;;;;;;9.65;2.40;;;24.60;76.10;;;;;;5003269;28;20065;-66
2022/03/18 06:23:34;;;;;;;23.65;3.42;;;24.60;76.10;;;;;;5012589;28;20033;-66
2022/03/18 06:26:02;;;;;;;21.90;3.40;;;24.60;76.60;;;;;;5029445;28;20113;-67
2022/03/18 06:28:31;;;;;;;9.77;2.45;;;24.60;77.30;;;;;;5028431;28;20037;-66
2022/03/18 06:30:58;;;;;;;10.20;2.95;;;24.50;76.50;;;;;;4996000;28;20029;-66
2022/03/18 06:33:27;;;;;;;9.73;2.22;;;24.50;77.20;;;;;;5010998;28;20076;-68
2022/03/18 06:35:54;;;;;;;8.73;2.58;;;24.50;76.40;;;;;;5000874;28;20453;-67
2022/03/18 06:38:21;;;;;;;13.57;2.60;;;24.50;76.10;;;;;;5006670;28;20042;-67
2022/03/18 06:40:49;;;;;;;10.43;2.30;;;24.40;76.70;;;;;;5011321;28;21493;-68
2022/03/18 06:43:16;;;;;;;6.40;2.40;;;24.40;77.10;;;;;;4992121;28;20042;-66
2022/03/18 06:45:44;;;;;;;8.15;2.25;;;24.40;76.90;;;;;;4992097;28;20029;-65
2022/03/18 06:48:11;;;;;;;8.90;2.40;;;24.30;77.10;;;;;;5008917;28;20085;-65
2022/03/18 06:50:38;;;;;;;10.30;2.45;;;24.30;77.80;;;;;;4976480;28;20037;-67
2022/03/18 06:53:05;;;;;;;7.70;1.95;;;24.30;78.10;;;;;;4994678;28;20100;-66
2022/03/18 11:18:50;;;;;;;14.85;3.70;;;21.70;96.30;;;;;;3294386;26;20041;-74
2022/03/18 11:21:18;;;;;;;14.43;4.03;;;21.60;96.30;;;;;;5053432;28;20036;-74
2022/03/18 11:23:45;;;;;;;21.05;4.40;;;21.60;96.30;;;;;;5052420;28;20179;-75
2022/03/18 11:26:18;;;;;;;15.48;4.25;;;21.60;96.40;;;;;;5036341;28;20399;-73
2022/03/18 11:28:45;;;;;;;12.10;3.80;;;21.60;96.30;;;;;;5035768;28;20037;-74
2022/03/18 11:31:19;;;;;;;11.13;3.83;;;21.70;96.40;;;;;;5035315;28;20033;-78
2022/03/18 11:34:09;;;;;;;11.65;3.45;;;21.60;96.20;;;;;;5036395;28;20035;-76
2022/03/18 11:36:37;;;;;;;14.85;3.80;;;21.60;96.30;;;;;;5053272;28;20033;-78
2022/03/18 11:39:06;;;;;;;10.38;3.53;;;21.60;96.10;;;;;;5017969;28;20399;-77
2022/03/18 11:41:56;;;;;;;7.87;2.90;;;21.60;96.20;;;;;;5028922;28;20392;-78
2022/03/18 11:44:49;;;;;;;;;;;21.50;96.10;;;;;;5050760;28;20045;-77
2022/03/18 11:47:31;;;;;;;6.53;3.47;;;21.50;96.10;;;;;;5041345;28;19917;-77
2022/03/18 11:49:59;;;;;;;8.55;3.63;;;21.50;96.20;;;;;;5051897;28;20512;-77
2022/03/18 11:52:26;;;;;;;6.63;3.30;;;21.50;96.20;;;;;;5052149;28;20027;-81
2022/03/18 11:55:09;;;;;;;7.25;2.80;;;21.50;96.10;;;;;;5034500;28;20029;-83
2022/03/18 11:57:46;;;;;;;10.50;3.40;;;21.50;96.10;;;;;;5018139;28;20191;-82
2022/03/18 12:00:42;;;;;;;13.23;4.35;;;21.60;96.20;;;;;;5007445;28;20531;-80
2022/03/18 12:03:18;;;;;;;16.30;4.25;;;21.60;96.10;;;;;;5050467;28;20102;-77
2022/03/18 12:05:56;;;;;;;15.18;4.43;;;21.60;96.10;;;;;;5034313;28;20120;-78
2022/03/18 12:08:53;;;;;;;11.98;3.92;;;21.70;96.10;;;;;;5034983;28;20495;-77
2022/03/18 12:11:31;;;;;;;14.43;3.92;;;21.70;95.70;;;;;;5045513;28;20040;-77
2022/03/18 12:13:59;;;;;;;11.48;3.50;;;21.70;95.70;;;;;;5016985;28;20049;-79
2022/03/18 12:16:27;;;;;;;14.57;4.00;;;21.70;95.40;;;;;;5017080;28;20029;-77
2022/03/18 12:19:01;;;;;;;12.73;3.80;;;21.70;95.40;;;;;;5034721;28;20045;-77
2022/03/18 12:21:39;;;;;;;16.48;3.90;;;21.70;95.10;;;;;;5033883;28;20394;-79
2022/03/18 12:24:08;;;;;;;13.18;3.30;;;21.70;95.30;;;;;;5018080;28;20043;-78
2022/03/18 12:26:36;;;;;;;15.63;3.65;;;21.80;95.30;;;;;;5034929;28;20537;-75
2022/03/18 12:29:04;;;;;;;18.52;3.40;;;21.80;95.20;;;;;;5052120;28;20037;-76
2022/03/18 12:31:31;;;;;;;15.10;3.63;;;21.80;94.90;;;;;;5018360;28;20399;-74
2022/03/18 12:34:03;;;;;;;13.73;3.70;;;21.80;95.00;;;;;;5018377;28;20049;-75
2022/03/18 12:36:30;;;;;;;10.32;3.17;;;21.80;94.90;;;;;;5034606;28;20040;-76
2022/03/18 12:39:11;;;;;;;12.27;3.35;;;21.90;95.20;;;;;;5033780;28;20029;-72
2022/03/18 12:41:40;;;;;;;15.38;3.30;;;21.80;95.00;;;;;;5034158;28;20037;-75
2022/03/18 12:44:07;;;;;;;12.05;2.95;;;21.80;94.90;;;;;;5033580;28;20770;-74
2022/03/18 12:46:35;;;;;;;13.05;3.75;;;21.80;95.10;;;;;;5052057;28;20598;-76
2022/03/18 12:49:02;;;;;;;13.10;3.40;;;21.80;95.00;;;;;;5032312;28;20043;-74
2022/03/18 12:51:29;;;;;;;15.68;4.03;;;21.90;95.00;;;;;;5033500;28;20040;-75
2022/03/18 12:53:58;;;;;;;10.85;3.33;;;21.90;94.80;;;;;;5033607;28;20086;-78
2022/03/18 12:56:29;;;;;;;8.77;2.78;;;21.90;95.00;;;;;;5033633;28;20495;-79
2022/03/18 12:58:57;;;;;;;6.78;3.17;;;21.80;94.70;;;;;;5033627;28;20045;-75
2022/03/18 13:01:25;;;;;;;13.25;3.28;;;21.80;94.50;;;;;;5017114;28;20037;-75
2022/03/18 13:03:55;;;;;;;11.07;2.88;;;21.80;94.10;;;;;;5051125;28;20076;-74
2022/03/18 13:06:24;;;;;;;11.13;2.92;;;21.80;94.00;;;;;;5034022;28;20057;-73
2022/03/18 13:09:05;;;;;;;13.68;3.33;;;21.80;94.30;;;;;;5032775;28;20083;-73
2022/03/18 13:11:34;;;;;;;13.10;3.40;;;21.90;94.40;;;;;;5033460;28;20454;-76
2022/03/18 13:14:02;;;;;;;14.47;3.70;;;21.80;93.60;;;;;;5017062;28;20489;-76
2022/03/18 13:16:40;;;;;;;9.10;2.80;;;21.80;93.60;;;;;;5051169;28;20616;-77
2022/03/18 13:19:07;;;;;;;11.73;2.85;;;21.80;93.80;;;;;;5033120;28;20152;-72
2022/03/18 13:21:47;;;;;;;10.52;3.33;;;21.80;93.70;;;;;;5032958;28;20091;-72
2022/03/18 13:24:15;;;;;;;12.87;3.00;;;21.80;93.80;;;;;;5043317;28;20090;-73
2022/03/18 13:26:46;;;;;;;9.60;2.88;;;21.80;93.70;;;;;;5051632;28;20052;-75
2022/03/18 13:29:15;;;;;;;12.25;2.85;;;21.80;93.80;;;;;;5015255;28;20036;-73
2022/03/18 13:34:33;;;;;;;8.55;2.72;;;21.80;93.20;;;;;;5006197;28;20040;-76
2022/03/18 13:37:14;;;;;;;11.27;2.65;;;21.80;93.10;;;;;;5017292;28;20037;-74
2022/03/18 13:39:42;;;;;;;9.50;2.65;;;21.80;92.80;;;;;;5032789;28;20044;-73
2022/03/18 13:42:20;;;;;;;12.88;2.90;;;21.80;93.20;;;;;;5033955;28;20472;-74
2022/03/18 13:44:48;;;;;;;11.57;3.00;;;21.80;92.90;;;;;;5017817;28;20053;-74
2022/03/18 13:47:15;;;;;;;11.73;3.15;;;21.80;93.00;;;;;;5016633;28;20033;-75
2022/03/18 13:49:56;;;;;;;10.45;2.60;;;21.80;93.00;;;;;;5042181;28;20033;-71
2022/03/18 13:52:50;;;;;;;9.77;2.83;;;21.80;93.10;;;;;;5030663;28;20032;-73
2022/03/18 13:55:30;;;;;;;10.07;2.78;;;21.90;93.40;;;;;;5034551;28;20410;-73
2022/03/18 13:57:57;;;;;;;;;;;21.90;93.20;;;;;;5031714;28;20033;-72
2022/03/18 14:00:28;;;;;;;10.27;2.80;;;22.00;93.60;;;;;;5028121;28;19909;-74
2022/03/18 14:03:06;;;;;;;14.93;2.92;;;22.00;93.60;;;;;;4999477;28;20068;-74
2022/03/18 14:05:34;;;;;;;10.80;3.15;;;21.90;93.60;;;;;;5032539;28;20120;-75
2022/03/18 14:08:03;;;;;;;8.80;3.10;;;21.90;93.70;;;;;;5015116;28;20033;-73
2022/03/18 14:10:40;;;;;;;13.93;3.03;;;21.90;93.70;;;;;;5032622;28;20703;-73
2022/03/18 14:13:09;;;;;;;11.70;2.88;;;22.00;93.60;;;;;;5050149;28;20064;-74
2022/03/18 14:15:49;;;;;;;8.63;2.72;;;21.90;93.50;;;;;;5032147;28;20033;-75
2022/03/18 14:18:21;;;;;;;8.45;2.83;;;21.90;93.60;;;;;;5032391;28;20082;-75
2022/03/18 14:20:48;;;;;;;11.63;2.90;;;21.90;93.70;;;;;;5016168;28;20443;-74
2022/03/18 14:23:21;;;;;;;11.98;3.25;;;21.90;93.60;;;;;;5050429;28;20037;-74
2022/03/18 14:25:48;;;;;;;8.25;2.60;;;21.90;93.20;;;;;;5032459;28;20037;-74
2022/03/18 14:28:23;;;;;;;9.40;2.53;;;21.80;93.20;;;;;;5049314;28;20032;-74
2022/03/18 14:30:50;;;;;;;12.85;3.63;;;21.80;92.90;;;;;;5032788;28;20027;-74
2022/03/18 14:33:18;;;;;;;6.90;2.85;;;21.80;93.30;;;;;;5032274;28;20062;-73
2022/03/18 14:35:46;;;;;;;9.15;2.97;;;21.90;93.40;;;;;;5031329;28;20025;-73
2022/03/18 14:38:13;;;;;;;6.75;2.90;;;21.90;93.20;;;;;;5031724;28;20025;-72
2022/03/18 14:40:41;;;;;;;10.95;2.50;;;21.90;92.70;;;;;;5049413;28;20037;-73
2022/03/18 14:43:08;;;;;;;9.73;2.95;;;21.90;92.60;;;;;;5048918;28;20402;-73
2022/03/18 14:45:36;;;;;;;8.63;3.03;;;21.90;92.80;;;;;;5049631;28;20044;-74
2022/03/18 14:48:03;;;;;;;7.18;2.75;;;21.80;92.80;;;;;;5031970;28;20029;-75
2022/03/18 14:50:30;;;;;;;12.57;3.17;;;21.80;93.00;;;;;;5016378;28;20037;-75
2022/03/18 14:52:57;;;;;;;14.35;3.30;;;21.80;93.00;;;;;;5031847;28;20068;-75
2022/03/18 14:58:10;;;;;;;8.75;2.90;;;21.70;93.60;;;;;;5034543;28;20437;-70
2022/03/18 15:00:38;;;;;;;8.75;3.17;;;21.80;93.70;;;;;;5050281;28;20041;-70
2022/03/18 15:03:05;;;;;;;9.50;2.60;;;21.80;93.60;;;;;;5031540;28;20441;-70
2022/03/18 15:32:21;;;;;;;6.97;3.10;;;21.30;92.10;;;;;;5027177;28;20076;-69
2022/03/18 15:34:49;;;;;;;15.18;3.30;;;21.30;92.30;;;;;;5029934;28;20458;-70
2022/03/18 15:37:16;;;;;;;8.43;3.40;;;21.30;92.90;;;;;;5028935;28;20400;-69
2022/03/18 15:39:43;;;;;;;15.77;3.95;;;21.30;92.50;;;;;;5029583;28;20439;-70
2022/03/18 15:42:10;;;;;;;8.13;3.40;;;21.30;92.60;;;;;;5029581;28;20050;-70
2022/03/18 15:44:38;;;;;;;10.93;3.90;;;21.30;92.60;;;;;;5013010;28;20129;-70
2022/03/18 15:47:05;;;;;;;14.27;4.00;;;21.40;92.90;;;;;;5012021;28;20026;-70
2022/03/18 15:49:35;;;;;;;13.45;3.60;;;21.50;92.80;;;;;;5029732;28;20025;-70
2022/03/18 15:52:09;;;;;;;15.65;3.67;;;21.50;92.80;;;;;;5030607;28;20029;-69
2022/03/18 15:54:36;;;;;;;9.05;3.70;;;21.50;92.80;;;;;;5033079;28;20113;-69
2022/03/18 15:57:04;;;;;;;11.70;3.80;;;21.50;92.90;;;;;;5032501;28;20727;-69
2022/03/18 15:59:31;;;;;;;14.82;4.40;;;21.50;92.90;;;;;;5032091;28;20048;-70
2022/03/18 16:01:58;;;;;;;14.45;3.90;;;21.60;92.70;;;;;;5017035;28;20574;-70
2022/03/18 16:04:26;;;;;;;9.50;3.55;;;21.60;92.80;;;;;;5032522;28;21218;-69
2022/03/18 16:06:53;;;;;;;13.38;3.45;;;21.50;92.70;;;;;;5033088;28;20388;-70
2022/03/18 16:09:20;;;;;;;14.77;3.72;;;21.60;92.50;;;;;;5033261;28;20480;-69
2022/03/18 16:11:47;;;;;;;14.20;3.50;;;21.60;93.00;;;;;;5032724;28;20037;-70
2022/03/18 16:14:14;;;;;;;16.92;4.30;;;21.60;93.10;;;;;;5033089;28;20041;-70
2022/03/18 16:16:43;;;;;;;17.15;3.75;;;21.60;93.20;;;;;;5033070;28;20034;-70
2022/03/18 16:19:12;;;;;;;12.25;3.75;;;21.60;93.20;;;;;;5032219;28;20065;-69
2022/03/18 16:21:40;;;;;;;13.35;3.72;;;21.60;93.20;;;;;;5032277;28;20078;-69
2022/03/18 16:24:07;;;;;;;15.35;3.25;;;21.60;93.30;;;;;;5033119;28;20046;-69
2022/03/18 16:26:38;;;;;;;14.00;4.38;;;21.60;93.10;;;;;;5030750;28;20021;-69
2022/03/18 16:29:05;;;;;;;9.23;3.08;;;21.60;93.00;;;;;;5032524;28;20033;-69
2022/03/18 16:31:33;;;;;;;11.07;3.10;;;21.60;93.20;;;;;;5020757;28;20373;-69
2022/03/18 16:34:00;;;;;;;10.18;2.70;;;21.70;93.20;;;;;;5032363;28;20072;-70
2022/03/18 16:36:27;;;;;;;9.57;2.90;;;21.70;92.90;;;;;;5030295;28;20623;-70
2022/03/18 16:38:54;;;;;;;6.95;2.28;;;21.60;92.70;;;;;;4998059;28;20120;-70
2022/03/18 16:41:22;;;;;;;14.00;2.88;;;21.60;92.30;;;;;;5032168;28;20113;-70
2022/03/18 16:43:49;;;;;;;10.98;2.47;;;21.70;92.70;;;;;;5032809;28;20141;-70
2022/03/18 16:51:46;;;;;;;8.13;2.40;;;21.70;91.90;;;;;;5025357;28;20095;-69
2022/03/18 16:54:13;;;;;;;11.15;2.97;;;21.70;91.60;;;;;;5031998;28;20029;-70
2022/03/18 16:56:41;;;;;;;8.75;2.50;;;21.70;91.70;;;;;;5013744;28;20030;-69
2022/03/18 16:59:10;;;;;;;7.00;2.60;;;21.70;91.70;;;;;;5003983;28;20041;-69
2022/03/18 17:01:47;;;;;;;10.15;2.28;;;21.70;91.70;;;;;;5014542;28;20030;-70
2022/03/18 17:04:15;;;;;;;10.02;2.78;;;21.80;91.70;;;;;;5030302;28;20036;-70
2022/03/18 17:06:43;;;;;;;4.75;2.13;;;21.80;91.90;;;;;;4990883;28;20546;-70
2022/03/18 17:09:10;;;;;;;8.38;2.20;;;21.80;91.90;;;;;;4996385;28;20045;-70
2022/03/18 17:11:37;;;;;;;10.07;2.63;;;21.80;91.20;;;;;;5014890;28;20365;-70
2022/03/18 17:14:05;;;;;;;8.73;2.33;;;21.80;91.60;;;;;;4998449;28;20044;-70
2022/03/18 17:16:32;;;;;;;15.75;3.13;;;21.80;91.80;;;;;;5031400;28;20112;-70
2022/03/18 17:18:59;;;;;;;11.45;2.92;;;21.80;91.60;;;;;;5031464;28;20450;-70
2022/03/18 17:21:26;;;;;;;10.73;3.17;;;21.70;91.90;;;;;;5029771;28;20480;-68
2022/03/18 17:23:53;;;;;;;10.05;3.08;;;21.60;92.70;;;;;;5029039;28;20441;-68
2022/03/18 17:26:20;;;;;;;9.45;3.10;;;21.40;93.20;;;;;;5031918;28;20041;-69
2022/03/18 17:28:48;;;;;;;10.77;3.17;;;21.30;94.10;;;;;;5012343;28;20417;-69
2022/03/18 17:31:15;;;;;;;11.23;3.40;;;21.20;94.40;;;;;;5025366;28;20504;-69
2022/03/18 17:33:44;;;;;;;12.23;3.30;;;21.10;94.60;;;;;;5031811;28;20048;-69
2022/03/18 17:36:11;;;;;;;11.95;3.70;;;21.00;94.70;;;;;;5041186;28;20048;-69
2022/03/18 17:38:39;;;;;;;11.13;4.30;;;20.90;95.00;;;;;;5032667;28;20059;-69
2022/03/18 17:41:06;;;;;;;11.02;4.20;;;20.90;95.20;;;;;;5033696;28;20097;-70
2022/03/18 17:43:33;;;;;;;12.63;3.58;;;20.90;95.60;;;;;;5051716;28;20045;-71
2022/03/18 17:46:02;;;;;;;13.20;4.05;;;20.90;95.60;;;;;;5049775;28;20052;-71
2022/03/18 17:48:29;;;;;;;11.43;3.95;;;20.80;95.70;;;;;;5019982;28;20058;-69
2022/03/18 17:50:57;;;;;;;13.68;4.40;;;20.80;95.90;;;;;;5024668;28;20047;-70
2022/03/18 17:53:24;;;;;;;31.02;5.38;;;20.80;95.80;;;;;;5054046;28;20040;-70
2022/03/18 17:55:52;;;;;;;12.73;4.38;;;20.80;96.20;;;;;;5053778;28;20117;-72
2022/03/18 17:58:19;;;;;;;10.25;3.83;;;20.70;96.20;;;;;;5008398;28;20032;-71
2022/03/18 18:00:47;;;;;;;7.95;3.63;;;20.70;96.30;;;;;;5050163;28;20087;-71
2022/03/18 18:03:14;;;;;;;14.48;4.20;;;20.70;96.50;;;;;;5043787;28;20044;-71
2022/03/18 18:05:43;;;;;;;10.95;3.90;;;20.70;96.60;;;;;;5054495;28;20024;-71
2022/03/18 18:08:10;;;;;;;13.60;3.10;;;20.70;96.50;;;;;;5048555;28;20063;-71
2022/03/18 18:10:37;;;;;;;11.35;3.28;;;20.70;96.50;;;;;;5033711;28;20029;-72
2022/03/18 18:13:04;;;;;;;10.60;3.67;;;20.60;96.60;;;;;;5050242;28;20446;-72
2022/03/18 18:15:31;;;;;;;8.07;3.10;;;20.60;96.70;;;;;;5048231;28;20041;-74
2022/03/18 18:17:59;;;;;;;11.60;3.33;;;20.70;96.80;;;;;;5032243;28;20396;-72
2022/03/18 18:23:11;;;;;;;6.22;3.20;;;20.50;96.70;;;;;;5050583;28;20063;-71
2022/03/18 18:25:43;;;;;;;5.53;3.28;;;20.50;96.80;;;;;;5051186;28;20029;-73
2022/03/18 18:28:11;;;;;;;7.95;3.08;;;20.40;96.90;;;;;;5039073;28;20035;-73
2022/03/18 18:30:38;;;;;;;12.15;3.30;;;20.40;96.90;;;;;;5050649;28;20439;-73
2022/03/18 18:33:06;;;;;;;8.98;2.95;;;20.40;97.10;;;;;;5016172;28;20042;-73
2022/03/18 18:35:33;;;;;;;8.00;3.72;;;20.40;97.10;;;;;;5049906;28;20025;-73
2022/03/18 18:38:03;;;;;;;8.70;3.22;;;20.30;97.00;;;;;;5031027;28;20083;-71
2022/03/18 18:40:30;;;;;;;12.93;3.90;;;20.30;97.00;;;;;;5032931;28;20029;-70
2022/03/18 18:43:01;;;;;;;9.70;4.07;;;20.30;97.20;;;;;;5015589;28;20734;-70
2022/03/18 18:45:29;;;;;;;11.07;3.97;;;20.20;97.20;;;;;;5044471;28;20036;-72
2022/03/18 18:47:56;;;;;;;10.48;4.25;;;20.30;97.30;;;;;;5049620;28;20116;-74
2022/03/18 18:50:23;;;;;;;11.10;4.10;;;20.20;97.30;;;;;;5049610;28;20056;-71
2022/03/18 18:52:51;;;;;;;23.23;4.90;;;20.20;97.20;;;;;;5028626;28;20103;-71
2022/03/18 18:55:23;;;;;;;12.75;4.70;;;20.20;97.20;;;;;;5048297;28;20645;-71
2022/03/18 18:57:54;;;;;;;16.85;4.55;;;20.10;97.30;;;;;;5049559;28;20532;-72
2022/03/18 19:00:21;;;;;;;15.30;4.97;;;20.10;97.30;;;;;;5028126;28;20379;-70
2022/03/18 19:02:49;;;;;;;15.05;5.07;;;20.00;97.20;;;;;;5049065;28;20056;-69
2022/03/18 19:05:17;;;;;;;26.92;5.78;;;20.00;97.20;;;;;;5041017;28;20037;-72
2022/03/18 19:07:44;;;;;;;20.73;6.10;;;20.00;97.40;;;;;;5048366;28;20033;-73
2022/03/18 19:10:11;;;;;;;24.55;5.70;;;20.00;97.40;;;;;;5049037;28;20067;-74
2022/03/18 19:12:38;;;;;;;13.20;4.63;;;20.00;97.50;;;;;;5049240;28;20022;-72
2022/03/18 20:59:38;;;;;;;31.38;5.13;;;19.20;97.50;;;;;;5028574;28;20083;-76
2022/03/18 21:02:05;;;;;;;34.28;5.57;;;19.30;97.40;;;;;;5031328;28;20038;-74
2022/03/18 21:04:32;;;;;;;40.78;6.25;;;19.20;97.30;;;;;;5030122;28;20063;-76
2022/03/18 21:07:02;;;;;;;29.58;5.50;;;19.20;97.20;;;;;;5031756;28;20711;-76
2022/03/18 21:09:31;;;;;;;31.00;5.45;;;19.20;97.30;;;;;;5009580;28;20641;-76
2022/03/18 21:11:58;;;;;;;24.88;4.38;;;19.20;97.20;;;;;;4998199;28;20492;-75
2022/03/18 21:14:27;;;;;;;31.70;5.35;;;19.10;96.90;;;;;;5013358;28;20443;-74
2022/03/18 21:19:40;;;;;;;30.63;4.80;;;19.10;97.00;;;;;;5015830;28;20129;-74
2022/03/18 21:22:07;;;;;;;30.75;5.20;;;19.10;97.10;;;;;;5012907;28;20584;-76
2022/03/18 21:24:34;;;;;;;33.25;4.75;;;19.20;97.10;;;;;;5031365;28;20052;-79
2022/03/18 21:32:33;;;;;;;30.33;5.43;;;19.30;97.00;;;;;;5030169;28;20083;-73
2022/03/18 21:35:00;;;;;;;24.35;4.38;;;19.30;96.80;;;;;;5020722;28;20022;-72
2022/03/18 21:37:27;;;;;;;21.17;4.13;;;19.30;96.90;;;;;;5012613;28;20028;-73
2022/03/18 21:39:54;;;;;;;29.25;4.32;;;19.30;96.90;;;;;;5030627;28;20128;-73
2022/03/18 21:42:21;;;;;;;29.15;4.90;;;19.40;97.10;;;;;;5012590;28;20523;-74
2022/03/18 21:44:48;;;;;;;34.80;5.45;;;19.50;96.90;;;;;;5012907;28;20107;-72
2022/03/18 21:47:19;;;;;;;33.95;5.65;;;19.50;96.40;;;;;;5011925;28;20055;-75
2022/03/18 21:49:46;;;;;;;30.65;4.68;;;19.50;95.90;;;;;;5027323;28;20033;-74
2022/03/18 21:52:14;;;;;;;32.22;4.55;;;19.50;94.90;;;;;;5029703;28;20116;-73
2022/03/18 21:54:41;;;;;;;28.02;4.03;;;19.70;94.70;;;;;;5013055;28;20033;-72
2022/03/18 21:57:08;;;;;;;26.65;4.68;;;19.80;94.80;;;;;;5028885;28;20113;-74
2022/03/18 22:06:06;;;;;;;29.77;5.80;;;19.90;94.60;;;;;;5029704;28;20076;-76
2022/03/18 22:08:32;;;;;;;;;;;20.00;94.20;;;;;;5030461;28;20060;-76
2022/03/18 22:11:00;;;;;;;20.13;4.18;;;20.00;94.20;;;;;;5011983;28;20378;-75
2022/03/18 22:13:27;;;;;;;25.15;4.28;;;20.00;93.60;;;;;;5012598;28;20058;-76
2022/03/18 22:15:54;;;;;;;30.08;4.75;;;20.10;92.70;;;;;;5027631;28;20052;-73
2022/03/18 22:18:21;;;;;;;25.75;4.35;;;20.20;92.60;;;;;;5029544;28;20395;-73
2022/03/18 22:20:49;;;;;;;26.30;4.55;;;20.20;92.90;;;;;;5025847;28;20114;-74
2022/03/18 22:23:16;;;;;;;21.33;3.47;;;20.30;91.90;;;;;;5023365;28;20045;-73
2022/03/18 22:25:44;;;;;;;21.30;3.70;;;20.20;91.30;;;;;;5012007;28;20476;-72
2022/03/18 22:28:11;;;;;;;21.45;3.65;;;20.30;91.00;;;;;;5027668;28;20034;-73
2022/03/18 22:30:38;;;;;;;21.63;4.07;;;20.30;89.80;;;;;;5029733;28;20033;-75
2022/03/18 22:33:06;;;;;;;24.52;3.92;;;20.40;89.70;;;;;;5027025;28;20052;-73
2022/03/18 22:35:33;;;;;;;23.38;4.40;;;20.50;89.90;;;;;;5029703;28;20441;-72
2022/03/18 22:38:00;;;;;;;22.48;4.47;;;20.50;89.90;;;;;;5029502;28;20045;-73
2022/03/18 22:40:27;;;;;;;19.42;3.55;;;20.50;89.90;;;;;;5029780;28;20034;-73
2022/03/18 22:42:54;;;;;;;23.65;4.55;;;20.50;89.30;;;;;;5030303;28;20053;-74
2022/03/18 22:45:22;;;;;;;20.55;3.70;;;20.50;89.00;;;;;;5026298;28;20029;-73
2022/03/18 22:47:49;;;;;;;20.25;3.97;;;20.50;88.70;;;;;;5011284;28;20033;-75
2022/03/18 22:50:16;;;;;;;20.33;3.70;;;20.50;88.70;;;;;;5006580;28;20041;-75
2022/03/18 22:52:44;;;;;;;18.55;3.78;;;20.50;88.90;;;;;;5011597;28;20464;-75
2022/03/18 22:55:11;;;;;;;22.73;3.65;;;20.50;89.20;;;;;;5012218;28;20084;-75
2022/03/18 22:57:40;;;;;;;27.23;3.55;;;20.50;88.40;;;;;;4994416;28;20037;-75
2022/03/18 23:00:10;;;;;;;17.05;3.78;;;20.50;88.40;;;;;;5010809;28;20148;-75
2022/03/18 23:02:39;;;;;;;17.08;3.28;;;20.50;87.30;;;;;;5014447;28;20407;-74
2022/03/18 23:05:09;;;;;;;19.23;3.60;;;20.50;87.70;;;;;;4999603;28;20582;-73
2022/03/18 23:07:36;;;;;;;17.85;3.28;;;20.50;86.90;;;;;;5033295;28;20065;-73
2022/03/18 23:12:08;;;;;;;17.17;3.63;;;20.50;86.00;;;;;;5032457;28;20559;-74
2022/03/18 23:12:52;;;;;;;18.95;3.42;;;20.50;86.50;;;;;;5014568;28;20070;-71
2022/03/18 23:15:21;;;;;;;14.57;3.10;;;20.50;86.80;;;;;;5031878;28;20038;-76
2022/03/18 23:17:48;;;;;;;14.93;3.10;;;20.50;85.40;;;;;;5033821;28;20033;-72
2022/03/18 23:20:16;;;;;;;18.05;4.25;;;20.50;85.90;;;;;;5031857;28;20046;-73
2022/03/18 23:22:44;;;;;;;19.73;3.75;;;20.50;85.90;;;;;;5014428;28;20115;-73
2022/03/18 23:25:11;;;;;;;20.38;3.63;;;20.50;86.20;;;;;;4998918;28;20451;-70
2022/03/18 23:27:39;;;;;;;17.33;3.20;;;20.50;86.60;;;;;;5031790;28;20033;-73
2022/03/18 23:30:08;;;;;;;14.75;2.83;;;20.50;85.50;;;;;;5029888;28;20490;-75
2022/03/18 23:32:36;;;;;;;16.67;3.28;;;20.40;86.00;;;;;;5033258;28;20072;-75